createdAt,value
2019-03-22T00:00:53.065Z,100843.87
2019-03-22T00:03:44.781Z,100844.59
2019-03-22T00:06:36.603Z,100839.14
2019-03-22T00:09:28.279Z,100842.78
2019-03-22T00:12:19.963Z,100834.80
2019-03-22T00:15:11.541Z,100837.74
2019-03-22T00:18:03.514Z,100846.13
2019-03-22T00:20:55.270Z,100846.23
2019-03-22T00:23:46.954Z,100837.94
2019-03-22T00:26:38.902Z,100834.46
2019-03-22T00:29:30.054Z,100830.53
2019-03-22T00:32:22.123Z,100833.45
2019-03-22T00:35:13.247Z,100827.80
2019-03-22T00:38:04.280Z,100822.90
2019-03-22T00:40:54.994Z,100824.12
2019-03-22T00:43:46.465Z,100822.31
2019-03-22T00:46:37.131Z,100818.84
2019-03-22T00:49:29.673Z,100816.93
2019-03-22T00:52:20.639Z,100819.41
2019-03-22T00:55:11.363Z,100816.59
2019-03-22T00:58:02.990Z,100817.27
2019-03-22T01:00:54.083Z,100816.87
2019-03-22T01:03:45.923Z,100809.13
2019-03-22T01:06:37.171Z,100808.31
2019-03-22T01:09:28.771Z,100806.87
2019-03-22T01:12:20.316Z,100798.76
2019-03-22T01:15:12.098Z,100801.25
2019-03-22T01:18:03.698Z,100798.31
2019-03-22T01:20:55.267Z,100799.34
2019-03-22T01:23:47.218Z,100795.50
2019-03-22T01:26:38.285Z,100793.83
2019-03-22T01:29:30.141Z,100791.75
2019-03-22T01:32:22.109Z,100784.73
2019-03-22T01:35:13.061Z,100777.13
2019-03-22T01:38:04.901Z,100779.59
2019-03-22T01:40:56.952Z,100781.25
2019-03-22T01:43:47.727Z,100776.52
2019-03-22T01:46:39.254Z,100774.95
2019-03-22T01:49:30.905Z,100778.09
2019-03-22T01:52:22.648Z,100780.44
2019-03-22T01:55:14.400Z,100783.84
2019-03-22T01:58:06.106Z,100777.80
2019-03-22T02:00:58.175Z,100784.59
2019-03-22T02:03:49.181Z,100775.68
2019-03-22T02:06:40.139Z,100773.62
2019-03-22T02:09:31.089Z,100768.52
2019-03-22T02:12:22.188Z,100765.85
2019-03-22T02:15:14.867Z,100776.20
2019-03-22T02:18:06.552Z,100774.62
2019-03-22T02:20:58.628Z,100774.34
2019-03-22T02:23:52.082Z,100778.63
2019-03-22T02:26:42.336Z,100771.87
2019-03-22T02:29:33.990Z,100777.97
2019-03-22T02:32:25.658Z,100775.16
2019-03-22T02:35:28.232Z,100776.98
2019-03-22T02:38:10.794Z,100781.69
2019-03-22T02:41:01.817Z,100779.52
2019-03-22T02:43:54.726Z,100776.79
2019-03-22T02:46:46.173Z,100777.66
2019-03-22T02:49:37.243Z,100773.63
2019-03-22T02:52:28.908Z,100775.54
2019-03-22T02:55:20.538Z,100773.41
2019-03-22T02:58:20.336Z,100775.33
2019-03-22T03:01:04.138Z,100779.38
2019-03-22T03:03:56.124Z,100768.86
2019-03-22T03:06:47.960Z,100772.68
2019-03-22T03:09:39.925Z,100773.02
2019-03-22T03:12:31.618Z,100771.62
2019-03-22T03:15:23.445Z,100767.44
2019-03-22T03:18:15.150Z,100766.72
2019-03-22T03:21:07.207Z,100767.93
2019-03-22T03:23:58.978Z,100763.27
2019-03-22T03:26:50.998Z,100768.86
2019-03-22T03:29:42.207Z,100763.19
2019-03-22T03:32:33.621Z,100765.49
2019-03-22T03:35:24.696Z,100767.16
2019-03-22T03:38:15.627Z,100769.22
2019-03-22T03:41:07.720Z,100771.16
2019-03-22T03:43:59.510Z,100777.73
2019-03-22T03:46:52.236Z,100776.22
2019-03-22T03:49:44.133Z,100774.67
2019-03-22T03:52:39.393Z,100775.47
2019-03-22T03:55:28.594Z,100770.72
2019-03-22T03:58:20.356Z,100771.83
2019-03-22T04:01:12.146Z,100774.05
2019-03-22T04:04:03.167Z,100782.30
2019-03-22T04:06:53.997Z,100780.41
2019-03-22T04:09:45.553Z,100778.77
2019-03-22T04:12:36.459Z,100775.16
2019-03-22T04:15:27.306Z,100769.94
2019-03-22T04:18:19.023Z,100774.44
2019-03-22T04:21:09.800Z,100778.52
2019-03-22T04:24:01.301Z,100776.72
2019-03-22T04:26:52.910Z,100778.55
2019-03-22T04:29:43.793Z,100771.12
2019-03-22T04:32:35.610Z,100768.61
2019-03-22T04:35:27.472Z,100761.55
2019-03-22T04:38:19.064Z,100760.20
2019-03-22T04:41:09.968Z,100770.53
2019-03-22T04:44:02.062Z,100768.20
2019-03-22T04:46:53.071Z,100766.58
2019-03-22T04:49:43.958Z,100760.61
2019-03-22T04:52:35.970Z,100761.30
2019-03-22T04:55:27.570Z,100755.92
2019-03-22T04:58:19.988Z,100762.91
2019-03-22T05:01:11.517Z,100757.57
2019-03-22T05:04:03.098Z,100761.48
2019-03-22T05:06:54.172Z,100768.63
2019-03-22T05:09:46.005Z,100761.42
2019-03-22T05:12:36.963Z,100768.20
2019-03-22T05:15:28.479Z,100766.39
2019-03-22T05:18:20.002Z,100770.06
2019-03-22T05:21:11.200Z,100775.20
2019-03-22T05:24:02.871Z,100774.56
2019-03-22T05:26:55.413Z,100779.32
2019-03-22T05:29:47.239Z,100777.13
2019-03-22T05:32:38.040Z,100779.69
2019-03-22T05:35:30.067Z,100771.98
2019-03-22T05:38:21.914Z,100778.09
2019-03-22T05:41:13.846Z,100783.64
2019-03-22T05:44:04.745Z,100783.73
2019-03-22T05:46:55.965Z,100794.23
2019-03-22T05:49:47.097Z,100802.30
2019-03-22T05:52:38.862Z,100799.83
2019-03-22T05:55:30.475Z,100796.50
2019-03-22T05:58:22.100Z,100804.30
2019-03-22T06:01:13.816Z,100808.45
2019-03-22T06:04:04.706Z,100817.88
2019-03-22T06:06:55.740Z,100815.35
2019-03-22T06:09:47.461Z,100814.72
2019-03-22T06:12:38.371Z,100816.13
2019-03-22T06:15:30.180Z,100827.52
2019-03-22T06:18:20.849Z,100825.98
2019-03-22T06:21:12.323Z,100824.13
2019-03-22T06:24:03.976Z,100827.54
2019-03-22T06:26:54.926Z,100819.47
2019-03-22T06:29:54.642Z,100827.39
2019-03-22T06:32:39.225Z,100820.04
2019-03-22T06:35:30.478Z,100820.72
2019-03-22T06:38:21.645Z,100830.61
2019-03-22T06:41:12.556Z,100832.54
2019-03-22T06:44:04.225Z,100839.02
2019-03-22T06:46:55.289Z,100846.25
2019-03-22T06:49:46.487Z,100838.44
2019-03-22T06:52:37.697Z,100839.20
2019-03-22T06:55:28.628Z,100839.84
2019-03-22T06:58:20.485Z,100838.75
2019-03-22T07:01:11.224Z,100837.26
2019-03-22T07:04:03.168Z,100845.97
2019-03-22T07:06:54.493Z,100845.84
2019-03-22T07:09:45.978Z,100842.17
2019-03-22T07:12:37.592Z,100844.26
2019-03-22T07:15:28.768Z,100840.02
2019-03-22T07:18:20.702Z,100838.80
2019-03-22T07:21:11.703Z,100839.33
2019-03-22T07:24:02.685Z,100838.02
2019-03-22T07:26:54.409Z,100840.83
2019-03-22T07:29:45.588Z,100841.59
2019-03-22T07:32:36.626Z,100838.22
2019-03-22T07:35:28.653Z,100835.91
2019-03-22T07:38:19.690Z,100834.36
2019-03-22T07:41:10.951Z,100828.05
2019-03-22T07:44:02.817Z,100829.62
2019-03-22T07:46:54.236Z,100836.11
2019-03-22T07:49:44.988Z,100831.57
2019-03-22T07:52:36.589Z,100827.08
2019-03-22T07:55:28.065Z,100825.25
2019-03-22T07:58:18.838Z,100823.64
2019-03-22T08:01:10.328Z,100819.16
2019-03-22T08:04:01.911Z,100815.50
2019-03-22T08:06:53.165Z,100813.51
2019-03-22T08:09:44.320Z,100808.27
2019-03-22T08:12:36.334Z,100809.42
2019-03-22T08:15:32.890Z,100803.92
2019-03-22T08:18:24.884Z,100803.41
2019-03-22T08:21:16.796Z,100797.97
2019-03-22T08:24:07.617Z,100801.19
2019-03-22T08:26:59.336Z,100806.03
2019-03-22T08:29:51.232Z,100798.10
2019-03-22T08:32:42.192Z,100790.08
2019-03-22T08:35:34.311Z,100791.22
2019-03-22T08:38:27.239Z,100789.22
2019-03-22T08:41:20.307Z,100782.41
2019-03-22T08:44:12.186Z,100785.14
2019-03-22T08:47:03.338Z,100788.39
2019-03-22T08:49:55.477Z,100783.73
2019-03-22T08:52:47.368Z,100784.55
2019-03-22T08:55:38.807Z,100782.77
2019-03-22T08:58:29.863Z,100783.61
2019-03-22T09:01:21.935Z,100778.48
2019-03-22T09:04:13.468Z,100779.64
2019-03-22T09:07:05.212Z,100778.95
2019-03-22T09:09:58.643Z,100774.38
2019-03-22T09:12:49.496Z,100764.17
2019-03-22T09:15:42.006Z,100766.13
2019-03-22T09:18:33.654Z,100755.92
2019-03-22T09:21:25.095Z,100756.63
2019-03-22T09:24:19.094Z,100748.73
2019-03-22T09:27:11.327Z,100744.52
2019-03-22T09:30:02.683Z,100738.13
2019-03-22T09:32:54.753Z,100739.60
2019-03-22T09:35:46.457Z,100738.22
2019-03-22T09:38:37.473Z,100732.39
2019-03-22T09:41:30.282Z,100726.09
2019-03-22T09:44:21.933Z,100720.16
2019-03-22T09:47:12.823Z,100720.16
2019-03-22T09:50:05.152Z,100715.33
2019-03-22T09:52:57.208Z,100714.55
2019-03-22T09:55:48.428Z,100707.59
2019-03-22T09:58:40.573Z,100710.97
2019-03-22T10:01:32.508Z,100705.25
2019-03-22T10:04:25.164Z,100705.94
2019-03-22T10:07:16.533Z,100698.48
2019-03-22T10:10:10.500Z,100698.01
2019-03-22T10:13:05.838Z,100701.49
2019-03-22T10:15:58.080Z,100700.07
2019-03-22T10:18:50.870Z,100705.84
2019-03-22T10:21:42.809Z,100705.37
2019-03-22T10:24:33.950Z,100697.91
2019-03-22T10:27:26.478Z,100692.73
2019-03-22T10:30:19.538Z,100695.05
2019-03-22T10:33:22.072Z,100690.15
2019-03-22T10:36:03.555Z,100691.05
2019-03-22T10:38:55.318Z,100687.83
2019-03-22T10:41:46.398Z,100684.53
2019-03-22T10:44:39.533Z,100683.60
2019-03-22T10:47:30.681Z,100680.61
2019-03-22T10:50:23.353Z,100677.78
2019-03-22T10:53:14.624Z,100669.50
2019-03-22T10:56:06.794Z,100670.02
2019-03-22T10:58:57.717Z,100668.30
2019-03-22T11:02:02.672Z,100661.16
2019-03-22T11:04:42.371Z,100657.33
2019-03-22T11:07:35.571Z,100654.33
2019-03-22T11:10:26.785Z,100645.75
2019-03-22T11:13:18.737Z,100643.55
2019-03-22T11:16:14.355Z,100642.23
2019-03-22T11:19:06.494Z,100644.02
2019-03-22T11:21:57.502Z,100640.13
2019-03-22T11:24:48.675Z,100636.53
2019-03-22T11:27:40.709Z,100632.92
2019-03-22T11:30:31.685Z,100638.86
2019-03-22T11:33:23.688Z,100630.66
2019-03-22T11:36:14.772Z,100628.56
2019-03-22T11:39:15.460Z,100622.14
2019-03-22T11:42:03.791Z,100625.50
2019-03-22T11:44:55.068Z,100624.91
2019-03-22T11:47:45.880Z,100622.34
2019-03-22T11:50:37.750Z,100621.38
2019-03-22T11:53:28.848Z,100620.33
2019-03-22T11:56:20.726Z,100619.09
2019-03-22T11:59:12.552Z,100617.80
2019-03-22T12:02:03.944Z,100614.61
2019-03-22T12:04:56.219Z,100612.52
2019-03-22T12:07:48.381Z,100613.23
2019-03-22T12:10:39.501Z,100608.26
2019-03-22T12:13:31.428Z,100598.63
2019-03-22T12:16:22.951Z,100600.04
2019-03-22T12:19:14.165Z,100608.83
2019-03-22T12:22:05.435Z,100591.17
2019-03-22T12:24:56.853Z,100596.00
2019-03-22T12:27:48.581Z,100589.53
2019-03-22T12:30:40.711Z,100591.80
2019-03-22T12:33:31.815Z,100584.31
2019-03-22T12:36:23.595Z,100587.13
2019-03-22T12:39:14.483Z,100577.67
2019-03-22T12:42:07.648Z,100572.20
2019-03-22T12:45:00.329Z,100569.66
2019-03-22T12:47:52.362Z,100563.17
2019-03-22T12:50:44.132Z,100556.11
2019-03-22T12:53:35.426Z,100554.12
2019-03-22T12:56:26.668Z,100547.53
2019-03-22T12:59:17.892Z,100545.20
2019-03-22T13:02:10.543Z,100546.31
2019-03-22T13:05:01.385Z,100543.97
2019-03-22T13:07:53.538Z,100537.16
2019-03-22T13:10:45.373Z,100527.95
2019-03-22T13:13:37.410Z,100531.66
2019-03-22T13:16:28.256Z,100531.19
2019-03-22T13:19:20.511Z,100530.14
2019-03-22T13:22:12.491Z,100527.92
2019-03-22T13:25:05.432Z,100524.34
2019-03-22T13:28:24.355Z,100519.45
2019-03-22T13:31:41.377Z,100516.02
2019-03-22T13:35:06.839Z,100510.41
2019-03-22T13:38:48.677Z,100507.45
2019-03-22T13:42:12.475Z,100506.08
2019-03-22T13:45:31.657Z,100501.87
2019-03-22T13:48:39.757Z,100494.54
2019-03-22T13:51:53.194Z,100491.27
2019-03-22T13:55:03.859Z,100483.80
2019-03-22T13:58:13.892Z,100481.19
2019-03-22T14:01:17.938Z,100479.89
2019-03-22T14:04:42.203Z,100482.52
2019-03-22T14:08:13.441Z,100471.94
2019-03-22T14:11:20.857Z,100468.99
2019-03-22T14:14:23.524Z,100470.28
2019-03-22T14:17:27.041Z,100469.44
2019-03-22T14:25:01.309Z,100463.98
2019-03-22T14:27:51.722Z,100456.11
2019-03-22T14:30:53.268Z,100457.71
2019-03-22T14:33:59.845Z,100455.21
2019-03-22T14:37:04.250Z,100448.28
2019-03-22T14:40:33.275Z,100447.63
2019-03-22T14:44:01.470Z,100446.66
2019-03-22T14:47:16.260Z,100442.70
2019-03-22T14:50:20.005Z,100439.91
2019-03-22T14:53:28.897Z,100436.44
2019-03-22T14:56:36.243Z,100440.22
2019-03-22T14:59:47.770Z,100438.03
2019-03-22T15:03:24.844Z,100436.16
2019-03-22T15:06:00.332Z,100430.55
2019-03-22T15:09:02.986Z,100424.48
2019-03-22T15:12:11.887Z,100422.91
2019-03-22T15:15:52.707Z,100417.41
2019-03-22T15:19:40.114Z,100414.77
2019-03-22T15:23:24.712Z,100408.17
2019-03-22T15:27:03.921Z,100406.94
2019-03-22T15:30:50.886Z,100405.77
2019-03-22T15:34:19.271Z,100406.79
2019-03-22T15:37:46.059Z,100401.00
2019-03-22T15:40:47.891Z,100403.16
2019-03-22T15:43:50.989Z,100404.72
2019-03-22T15:46:57.514Z,100403.55
2019-03-22T15:50:01.482Z,100399.22
2019-03-22T15:53:14.249Z,100400.58
2019-03-22T15:56:19.391Z,100404.81
2019-03-22T15:59:29.039Z,100401.18
2019-03-22T16:02:38.033Z,100399.93
2019-03-22T16:05:38.847Z,100396.28
2019-03-22T16:08:52.393Z,100396.23
2019-03-22T16:11:55.205Z,100400.00
2019-03-22T16:15:05.911Z,100402.95
2019-03-22T16:18:13.195Z,100402.87
2019-03-22T16:21:14.838Z,100400.41
2019-03-22T16:24:20.627Z,100401.91
2019-03-22T16:27:36.398Z,100401.77
2019-03-22T16:30:56.587Z,100404.41
2019-03-22T16:34:14.205Z,100405.66
2019-03-22T16:37:25.015Z,100409.19
2019-03-22T16:40:35.973Z,100409.84
2019-03-22T16:43:38.220Z,100406.20
2019-03-22T16:46:50.674Z,100411.19
2019-03-22T16:50:02.343Z,100405.57
2019-03-22T16:53:08.745Z,100413.52
2019-03-22T16:56:34.473Z,100414.58
2019-03-22T16:59:46.475Z,100415.72
2019-03-22T17:02:48.340Z,100419.58
2019-03-22T17:05:55.100Z,100424.59
2019-03-22T17:09:01.287Z,100427.96
2019-03-22T17:12:09.547Z,100425.77
2019-03-22T17:15:11.858Z,100431.17
2019-03-22T17:17:57.355Z,100424.70
2019-03-22T17:20:48.762Z,100419.23
2019-03-22T17:23:36.862Z,100423.69
2019-03-22T17:26:20.752Z,100417.56
2019-03-22T17:29:09.936Z,100417.36
2019-03-22T17:31:59.714Z,100419.72
2019-03-22T17:34:47.653Z,100414.67
2019-03-22T17:37:29.275Z,100419.94
2019-03-22T17:40:26.738Z,100421.00
2019-03-22T17:43:08.909Z,100418.55
2019-03-22T17:45:59.344Z,100423.69
2019-03-22T17:48:48.675Z,100425.14
2019-03-22T17:51:40.404Z,100423.65
2019-03-22T17:54:28.113Z,100425.62
2019-03-22T17:57:18.989Z,100421.30
2019-03-22T18:00:02.005Z,100420.05
2019-03-22T18:03:03.218Z,100430.33
2019-03-22T18:06:01.551Z,100424.48
2019-03-22T18:08:50.153Z,100428.48
2019-03-22T18:11:32.330Z,100437.14
2019-03-22T18:14:22.098Z,100435.27
2019-03-22T18:17:15.758Z,100437.70
2019-03-22T18:20:03.097Z,100437.30
2019-03-22T18:22:42.747Z,100432.67
2019-03-22T18:25:35.419Z,100433.74
2019-03-22T18:28:31.763Z,100441.00
2019-03-22T18:31:18.577Z,100445.08
2019-03-22T18:34:08.563Z,100443.08
2019-03-22T18:36:54.453Z,100443.59
2019-03-22T18:39:38.310Z,100442.05
2019-03-22T18:42:20.867Z,100445.62
2019-03-22T18:45:19.457Z,100441.05
2019-03-22T18:48:06.087Z,100445.89
2019-03-22T18:50:56.873Z,100444.52
2019-03-22T18:53:50.959Z,100446.26
2019-03-22T18:56:43.942Z,100442.38
2019-03-22T18:59:33.393Z,100443.57
2019-03-22T19:02:35.262Z,100443.38
2019-03-22T19:05:27.524Z,100444.56
2019-03-22T19:08:17.948Z,100447.95
2019-03-22T19:11:25.815Z,100450.98
2019-03-22T19:14:17.137Z,100451.61
2019-03-22T19:17:16.536Z,100452.86
2019-03-22T19:20:07.660Z,100453.53
2019-03-22T19:22:56.927Z,100452.43
2019-03-22T19:25:51.589Z,100455.92
2019-03-22T19:28:47.973Z,100454.66
2019-03-22T19:31:34.886Z,100457.94
2019-03-22T19:34:34.682Z,100454.28
2019-03-22T19:37:33.208Z,100460.83
2019-03-22T19:40:29.914Z,100459.83
2019-03-22T19:43:22.104Z,100462.03
2019-03-22T19:46:10.035Z,100458.47
2019-03-22T19:48:53.953Z,100458.48
2019-03-22T19:51:47.867Z,100460.22
2019-03-22T19:54:49.389Z,100458.33
2019-03-22T19:57:39.887Z,100454.02
2019-03-22T20:00:34.826Z,100451.77
2019-03-22T20:03:18.119Z,100446.02
2019-03-22T20:06:05.793Z,100447.95
2019-03-22T20:08:55.782Z,100446.37
2019-03-22T20:11:50.339Z,100448.84
2019-03-22T20:14:45.451Z,100450.69
2019-03-22T20:17:37.679Z,100446.31
2019-03-22T20:20:49.989Z,100444.37
2019-03-22T20:23:33.783Z,100444.06
2019-03-22T20:26:26.331Z,100442.80
2019-03-22T20:29:08.641Z,100443.09
2019-03-22T20:31:54.737Z,100442.91
2019-03-22T20:34:45.994Z,100435.71
2019-03-22T20:37:47.963Z,100445.55
2019-03-22T20:40:40.715Z,100447.70
2019-03-22T20:43:37.940Z,100445.38
2019-03-22T20:46:40.040Z,100444.17
2019-03-22T20:49:34.401Z,100436.44
2019-03-22T20:52:24.505Z,100433.15
2019-03-22T20:55:14.422Z,100433.98
2019-03-22T20:58:13.176Z,100427.30
2019-03-22T21:00:50.793Z,100430.27
2019-03-22T21:03:49.671Z,100432.83
2019-03-22T21:06:41.105Z,100432.64
2019-03-22T21:09:35.386Z,100434.28
2019-03-22T21:12:32.870Z,100433.64
2019-03-22T21:15:31.035Z,100440.14
2019-03-22T21:18:28.487Z,100437.78
2019-03-22T21:21:36.165Z,100440.16
2019-03-22T21:24:27.211Z,100438.98
2019-03-22T21:27:15.104Z,100448.34
2019-03-22T21:30:00.619Z,100445.97
2019-03-22T21:32:50.781Z,100448.28
2019-03-22T21:35:39.871Z,100443.89
2019-03-22T21:38:25.775Z,100444.95
2019-03-22T21:41:13.418Z,100444.91
2019-03-22T21:44:08.096Z,100447.31
2019-03-22T21:47:17.853Z,100445.43
2019-03-22T21:50:02.848Z,100440.49
2019-03-22T21:53:03.897Z,100441.02
2019-03-22T21:55:54.081Z,100444.61
2019-03-22T21:58:43.331Z,100445.17
2019-03-22T22:01:36.521Z,100437.22
2019-03-22T22:04:26.709Z,100437.91
2019-03-22T22:07:19.233Z,100442.73
2019-03-22T22:10:16.690Z,100443.25
2019-03-22T22:13:08.248Z,100443.23
2019-03-22T22:15:54.555Z,100446.61
2019-03-22T22:18:46.240Z,100437.83
2019-03-22T22:21:46.510Z,100436.48
2019-03-22T22:24:58.059Z,100442.55
2019-03-22T22:27:45.388Z,100438.41
2019-03-22T22:30:34.039Z,100438.34
2019-03-22T22:33:29.967Z,100440.84
2019-03-22T22:36:25.185Z,100435.50
2019-03-22T22:39:09.835Z,100443.03
2019-03-22T22:41:57.466Z,100443.74
2019-03-22T22:44:41.616Z,100438.13
2019-03-22T22:47:33.098Z,100435.64
2019-03-22T22:50:19.848Z,100434.05
2019-03-22T22:53:07.889Z,100433.20
2019-03-22T22:55:59.311Z,100432.19
2019-03-22T22:58:48.546Z,100434.10
2019-03-22T23:01:43.583Z,100432.12
2019-03-22T23:04:46.013Z,100440.00
2019-03-22T23:07:55.480Z,100429.86
2019-03-22T23:10:46.083Z,100437.24
2019-03-22T23:13:34.129Z,100431.70
2019-03-22T23:16:32.207Z,100430.94
2019-03-22T23:19:28.448Z,100434.38
2019-03-22T23:22:27.951Z,100436.44
2019-03-22T23:25:15.683Z,100435.36
2019-03-22T23:28:00.658Z,100433.56
2019-03-22T23:30:54.948Z,100430.56
2019-03-22T23:33:46.659Z,100431.94
2019-03-22T23:36:37.522Z,100430.41
2019-03-22T23:39:35.974Z,100433.50
2019-03-22T23:42:33.847Z,100439.56
2019-03-22T23:45:33.138Z,100436.24
2019-03-22T23:48:40.346Z,100441.74
2019-03-22T23:51:19.665Z,100438.39
2019-03-22T23:54:15.278Z,100438.94
2019-03-22T23:57:33.219Z,100437.63
